Time;durP1;ratioP1;P1;durP2;ratioP2;P2;SDS_P1;SDS_P2;PMS_P1;PMS_P2;Temp;Humidity;BMP_temperature;BMP_pressure;BME280_temperature;BME280_humidity;BME280_pressure;Samples;Min_cycle;Max_cycle;Signal;HPM_P1;HPM_P2
2021/03/17 00:00:55;;;;;;;;;;;8.60;69.30;;;;;;5024653;28;19956;-72
2021/03/17 00:03:21;;;;;;;;;;;8.60;69.40;;;;;;5023330;28;19926;-72
2021/03/17 00:05:48;;;;;;;;;;;8.60;69.40;;;;;;5023639;28;19929;-72
2021/03/17 00:08:14;;;;;;;;;;;8.60;69.30;;;;;;5028564;28;20028;-72
2021/03/17 00:10:42;;;;;;;;;;;8.60;69.40;;;;;;5012732;28;19926;-72
2021/03/17 00:13:10;;;;;;;;;;;8.60;69.30;;;;;;5015552;28;19925;-71
2021/03/17 00:15:37;;;;;;;;;;;8.70;69.40;;;;;;5021421;28;19925;-72
2021/03/17 00:18:03;;;;;;;;;;;8.70;69.00;;;;;;5017025;28;19929;-72
2021/03/17 00:20:30;;;;;;;;;;;8.70;69.00;;;;;;5030931;28;19925;-72
2021/03/17 00:22:56;;;;;;;;;;;8.70;69.00;;;;;;5019892;28;19926;-72
2021/03/17 00:25:23;;;;;;;;;;;8.70;69.10;;;;;;5018529;28;19932;-72
2021/03/17 00:27:49;;;;;;;;;;;8.70;69.10;;;;;;5025365;28;19937;-72
2021/03/17 00:30:17;;;;;;;;;;;8.60;69.20;;;;;;5012455;28;19961;-72
2021/03/17 00:32:43;;;;;;;;;;;8.60;69.50;;;;;;5027824;28;19936;-72
2021/03/17 00:35:10;;;;;;;;;;;8.60;69.50;;;;;;5015960;28;19932;-72
2021/03/17 00:37:36;;;;;;;;;;;8.60;69.60;;;;;;5028238;28;19925;-72
2021/03/17 00:40:03;;;;;;;;;;;8.60;69.50;;;;;;5013154;28;19925;-72
2021/03/17 00:42:29;;;;;;;;;;;8.60;69.70;;;;;;5013376;28;20386;-72
2021/03/17 00:44:55;;;;;;;;;;;8.60;69.60;;;;;;5027801;28;19933;-72
2021/03/17 00:47:23;;;;;;;;;;;8.60;69.70;;;;;;5015910;28;19925;-72
2021/03/17 00:49:49;;;;;;;;;;;8.60;69.70;;;;;;5013999;28;19925;-72
2021/03/17 00:52:15;;;;;;;;;;;8.60;69.60;;;;;;5020953;28;19933;-72
2021/03/17 00:54:41;;;;;;;;;;;8.60;69.50;;;;;;5022222;28;19929;-73
2021/03/17 00:57:08;;;;;;;;;;;8.70;69.70;;;;;;5014172;28;19926;-72
2021/03/17 00:59:34;;;;;;;;;;;8.70;69.40;;;;;;5013293;28;19930;-72
2021/03/17 01:02:00;;;;;;;;;;;8.70;69.40;;;;;;5013048;28;19925;-71
2021/03/17 01:04:27;;;;;;;;;;;8.70;69.40;;;;;;5011714;28;20137;-71
2021/03/17 01:06:54;;;;;;;;;;;8.70;69.60;;;;;;5028502;28;19925;-71
2021/03/17 01:09:20;;;;;;;;;;;8.60;69.40;;;;;;5018106;28;19925;-72
2021/03/17 01:11:46;;;;;;;;;;;8.60;69.60;;;;;;5013118;28;19930;-71
2021/03/17 01:14:13;;;;;;;;;;;8.60;69.80;;;;;;5032151;28;20385;-71
2021/03/17 01:16:39;;;;;;;;;;;8.50;70.10;;;;;;5032565;28;20289;-72
2021/03/17 01:19:05;;;;;;;;;;;8.50;70.00;;;;;;5025734;28;19925;-72
2021/03/17 01:21:32;;;;;;;;;;;8.50;70.10;;;;;;5027008;28;19925;-72
2021/03/17 01:23:59;;;;;;;;;;;8.50;70.20;;;;;;5023191;28;19925;-72
2021/03/17 01:26:25;;;;;;;;;;;8.50;70.20;;;;;;5020806;28;19937;-72
2021/03/17 01:28:51;;;;;;;;;;;8.50;70.30;;;;;;5021928;28;19925;-72
2021/03/17 01:31:17;;;;;;;;;;;8.40;70.30;;;;;;5015693;28;19929;-71
2021/03/17 01:33:44;;;;;;;;;;;8.40;70.40;;;;;;5021333;28;19925;-71
2021/03/17 01:36:10;;;;;;;;;;;8.40;70.50;;;;;;5015831;28;19926;-71
2021/03/17 01:38:37;;;;;;;;;;;8.40;70.60;;;;;;5034132;28;19929;-73
2021/03/17 01:41:04;;;;;;;;;;;8.40;70.70;;;;;;5033818;28;19933;-72
2021/03/17 01:43:30;;;;;;;;;;;8.40;70.70;;;;;;5022761;28;19937;-72
2021/03/17 01:45:56;;;;;;;;;;;8.40;71.40;;;;;;5035979;28;20289;-73
2021/03/17 01:48:23;;;;;;;;;;;8.50;70.80;;;;;;5028018;28;20293;-72
2021/03/17 01:50:50;;;;;;;;;;;8.50;70.80;;;;;;5016679;28;19929;-72
2021/03/17 01:53:17;;;;;;;;;;;8.50;70.70;;;;;;5020891;28;19979;-73
2021/03/17 01:55:45;;;;;;;;;;;8.50;70.60;;;;;;5035947;28;19941;-72
2021/03/17 01:58:12;;;;;;;;;;;8.50;70.60;;;;;;5032149;28;19944;-72
2021/03/17 02:00:38;;;;;;;;;;;8.50;70.60;;;;;;5017035;28;19930;-72
2021/03/17 02:03:05;;;;;;;;;;;8.50;70.70;;;;;;5017261;28;20389;-72
2021/03/17 02:05:35;;;;;;;;;;;8.50;70.70;;;;;;5023066;28;19979;-72
2021/03/17 02:08:03;;;;;;;;;;;8.50;70.80;;;;;;5035788;28;20366;-72
2021/03/17 02:10:30;;;;;;;;;;;8.50;70.80;;;;;;5015887;28;19937;-72
2021/03/17 02:13:07;;;;;;;;;;;8.50;70.90;;;;;;5016009;28;19926;-72
2021/03/17 02:15:39;;;;;;;;;;;8.40;70.70;;;;;;5013277;28;19926;-72
2021/03/17 02:18:06;;;;;;;;;;;8.40;70.80;;;;;;5015502;28;19933;-72
2021/03/17 02:20:39;;;;;;;;;;;8.40;70.90;;;;;;5015918;28;19930;-72
2021/03/17 02:23:11;;;;;;;;;;;8.40;70.80;;;;;;5016661;28;19929;-72
2021/03/17 02:25:48;;;;;;;;;;;8.40;70.90;;;;;;5014114;28;19969;-72
2021/03/17 02:28:23;;;;;;;;;;;8.40;70.80;;;;;;5032757;28;19979;-72
2021/03/17 02:31:04;;;;;;;;;;;8.40;70.90;;;;;;5034768;28;19925;-72
2021/03/17 02:33:45;;;;;;;;;;;8.40;71.00;;;;;;5022097;28;20301;-72
2021/03/17 02:36:14;;;;;;;;;;;8.30;71.00;;;;;;5024257;28;19964;-72
2021/03/17 02:38:44;;;;;;;;;;;8.30;70.80;;;;;;5021250;28;19936;-72
2021/03/17 02:41:12;;;;;;;;;;;8.30;70.80;;;;;;5035467;28;19925;-72
2021/03/17 02:43:41;;;;;;;;;;;8.30;70.80;;;;;;5025876;28;19937;-72
2021/03/17 02:46:08;;;;;;;;;;;8.30;70.70;;;;;;5026057;28;19925;-72
2021/03/17 02:48:37;;;;;;;;;;;8.30;70.60;;;;;;5015811;28;19926;-72
2021/03/17 02:51:05;;;;;;;;;;;8.30;70.80;;;;;;5016537;28;19933;-72
2021/03/17 02:53:33;;;;;;;;;;;8.30;70.90;;;;;;5016985;28;19979;-72
2021/03/17 02:56:01;;;;;;;;;;;8.30;71.00;;;;;;5018716;28;19948;-72
2021/03/17 02:58:28;;;;;;;;;;;8.40;71.20;;;;;;5033798;28;19980;-72
2021/03/17 03:00:56;;;;;;;;;;;8.40;71.00;;;;;;5027343;28;20298;-73
2021/03/17 03:03:25;;;;;;;;;;;8.40;70.80;;;;;;5015148;28;19933;-72
2021/03/17 03:05:54;;;;;;;;;;;8.40;70.70;;;;;;5032025;28;19925;-73
2021/03/17 03:08:21;;;;;;;;;;;8.40;70.80;;;;;;5034068;28;19925;-73
2021/03/17 03:10:48;;;;;;;;;;;8.40;70.70;;;;;;5032944;28;19925;-72
2021/03/17 03:13:14;;;;;;;;;;;8.40;70.80;;;;;;5023628;28;19925;-72
2021/03/17 03:15:41;;;;;;;;;;;8.40;70.70;;;;;;5014714;28;19926;-72
2021/03/17 03:18:08;;;;;;;;;;;8.40;70.70;;;;;;5012539;28;20678;-73
2021/03/17 03:20:35;;;;;;;;;;;8.40;70.70;;;;;;5025410;28;19991;-72
2021/03/17 03:23:02;;;;;;;;;;;8.40;70.70;;;;;;5030285;28;19925;-72
2021/03/17 03:25:29;;;;;;;;;;;8.40;70.70;;;;;;5014648;28;19934;-72
2021/03/17 03:27:56;;;;;;;;;;;8.40;70.10;;;;;;5014844;28;19959;-73
2021/03/17 03:30:23;;;;;;;;;;;8.40;69.90;;;;;;5014671;28;19925;-72
2021/03/17 03:32:50;;;;;;;;;;;8.40;69.80;;;;;;5031052;28;19929;-73
2021/03/17 03:35:16;;;;;;;;;;;8.30;70.10;;;;;;5033064;28;20570;-72
2021/03/17 03:37:43;;;;;;;;;;;8.40;70.50;;;;;;5033846;28;20138;-72
2021/03/17 03:40:10;;;;;;;;;;;8.30;70.30;;;;;;5016866;28;19968;-72
2021/03/17 03:42:37;;;;;;;;;;;8.30;70.20;;;;;;5014506;28;20749;-72
2021/03/17 03:45:05;;;;;;;;;;;8.30;70.30;;;;;;5013813;28;20449;-73
2021/03/17 03:47:31;;;;;;;;;;;8.40;70.50;;;;;;5024154;28;19932;-72
2021/03/17 03:49:59;;;;;;;;;;;8.40;70.30;;;;;;5014324;28;19929;-72
2021/03/17 03:52:28;;;;;;;;;;;8.30;70.30;;;;;;5013859;28;19933;-72
2021/03/17 03:54:58;;;;;;;;;;;8.30;69.90;;;;;;5013926;28;19932;-72
2021/03/17 03:57:28;;;;;;;;;;;8.20;70.10;;;;;;5015633;28;19925;-72
2021/03/17 03:59:55;;;;;;;;;;;8.20;70.40;;;;;;5014877;28;19937;-72
2021/03/17 04:02:23;;;;;;;;;;;8.30;70.50;;;;;;5028093;28;19925;-72
2021/03/17 04:04:50;;;;;;;;;;;8.30;70.50;;;;;;4994347;28;20459;-73
2021/03/17 04:07:17;;;;;;;;;;;8.30;70.30;;;;;;5021223;28;19936;-72
2021/03/17 04:09:45;;;;;;;;;;;8.40;70.10;;;;;;5014024;28;19929;-72
2021/03/17 04:12:12;;;;;;;;;;;8.30;69.80;;;;;;5013184;28;19925;-73
2021/03/17 04:14:39;;;;;;;;;;;8.30;70.10;;;;;;5013532;28;20298;-72
2021/03/17 04:17:09;;;;;;;;;;;8.30;70.10;;;;;;5015183;28;19979;-73
2021/03/17 04:19:37;;;;;;;;;;;8.30;70.10;;;;;;5013158;28;19975;-73
2021/03/17 04:22:05;;;;;;;;;;;8.30;70.00;;;;;;5031298;28;20294;-73
2021/03/17 04:24:32;;;;;;;;;;;8.40;69.90;;;;;;5018088;28;19925;-73
2021/03/17 04:27:01;;;;;;;;;;;8.40;69.90;;;;;;5029029;28;19932;-73
2021/03/17 04:29:28;;;;;;;;;;;8.40;70.00;;;;;;5016390;28;20374;-73
2021/03/17 04:31:55;;;;;;;;;;;8.40;70.00;;;;;;5024028;28;19933;-73
2021/03/17 04:34:22;;;;;;;;;;;8.40;70.10;;;;;;5014031;28;19933;-73
2021/03/17 04:36:49;;;;;;;;;;;8.40;69.80;;;;;;5010838;28;19926;-72
2021/03/17 04:39:16;;;;;;;;;;;8.40;69.80;;;;;;5025371;28;20329;-73
2021/03/17 04:41:43;;;;;;;;;;;8.40;69.60;;;;;;5020318;28;19925;-72
2021/03/17 04:44:09;;;;;;;;;;;8.40;69.70;;;;;;5012927;28;19926;-72
2021/03/17 04:46:35;;;;;;;;;;;8.40;69.50;;;;;;5016621;28;19932;-72
2021/03/17 04:49:02;;;;;;;;;;;8.50;69.80;;;;;;5025733;28;20305;-72
2021/03/17 04:51:28;;;;;;;;;;;8.50;69.60;;;;;;5027799;28;20416;-72
2021/03/17 04:53:55;;;;;;;;;;;8.50;69.60;;;;;;5025337;28;19925;-72
2021/03/17 04:56:24;;;;;;;;;;;8.50;69.60;;;;;;5027353;28;19932;-72
2021/03/17 04:58:52;;;;;;;;;;;8.50;69.70;;;;;;5022827;28;20381;-72
2021/03/17 05:01:19;;;;;;;;;;;8.50;69.20;;;;;;5024387;28;19929;-72
2021/03/17 05:03:46;;;;;;;;;;;8.40;69.40;;;;;;5016686;28;20318;-72
2021/03/17 05:06:13;;;;;;;;;;;8.40;69.70;;;;;;5030348;28;19933;-71
2021/03/17 05:08:41;;;;;;;;;;;8.40;69.70;;;;;;5023543;28;19972;-71
2021/03/17 05:11:09;;;;;;;;;;;8.40;69.60;;;;;;5016430;28;20341;-71
2021/03/17 05:13:36;;;;;;;;;;;8.40;69.40;;;;;;5028565;28;19932;-71
2021/03/17 05:16:02;;;;;;;;;;;8.40;69.20;;;;;;5025622;28;19940;-72
2021/03/17 05:18:29;;;;;;;;;;;8.40;69.40;;;;;;5016007;28;19980;-72
2021/03/17 05:20:55;;;;;;;;;;;8.40;69.20;;;;;;5013130;28;19929;-72
2021/03/17 05:23:21;;;;;;;;;;;8.40;69.30;;;;;;5014274;28;19954;-72
2021/03/17 05:25:48;;;;;;;;;;;8.40;69.20;;;;;;5032455;28;19925;-72
2021/03/17 05:28:16;;;;;;;;;;;8.40;69.20;;;;;;5031078;28;19925;-72
2021/03/17 05:30:44;;;;;;;;;;;8.40;69.20;;;;;;5028392;28;19925;-71
2021/03/17 05:33:11;;;;;;;;;;;8.40;69.20;;;;;;5025258;28;19925;-72
2021/03/17 05:35:38;;;;;;;;;;;8.40;69.50;;;;;;5019720;28;19925;-71
2021/03/17 05:38:04;;;;;;;;;;;8.40;69.40;;;;;;5012887;28;19948;-71
2021/03/17 05:40:31;;;;;;;;;;;8.40;69.20;;;;;;5017755;28;20293;-71
2021/03/17 05:42:59;;;;;;;;;;;8.50;69.40;;;;;;5031684;28;19964;-72
2021/03/17 05:45:27;;;;;;;;;;;8.50;69.30;;;;;;5024155;28;19980;-72
2021/03/17 05:47:54;;;;;;;;;;;8.50;69.40;;;;;;5012605;28;20270;-73
2021/03/17 05:50:22;;;;;;;;;;;8.50;69.40;;;;;;5018150;28;20289;-71
2021/03/17 05:52:48;;;;;;;;;;;8.50;69.50;;;;;;5031823;28;19971;-71
2021/03/17 05:55:15;;;;;;;;;;;8.50;69.50;;;;;;5028358;28;20298;-72
2021/03/17 05:57:42;;;;;;;;;;;8.50;69.60;;;;;;5021854;28;19929;-72
2021/03/17 06:00:09;;;;;;;;;;;8.50;69.80;;;;;;5031677;28;19937;-71
2021/03/17 06:02:37;;;;;;;;;;;8.50;69.60;;;;;;5028204;28;20278;-71
2021/03/17 06:05:04;;;;;;;;;;;8.50;69.20;;;;;;5023299;28;20366;-71
2021/03/17 06:07:33;;;;;;;;;;;8.50;69.10;;;;;;5031823;28;19925;-71
2021/03/17 06:10:01;;;;;;;;;;;8.50;69.20;;;;;;5028620;28;19994;-72
2021/03/17 06:12:29;;;;;;;;;;;8.50;69.20;;;;;;5035922;28;20290;-72
2021/03/17 06:14:55;;;;;;;;;;;8.50;69.40;;;;;;5018584;28;19926;-72
2021/03/17 06:17:23;;;;;;;;;;;8.50;69.60;;;;;;5034446;28;19975;-70
2021/03/17 06:19:53;;;;;;;;;;;8.50;69.50;;;;;;5034939;28;19943;-71
2021/03/17 06:22:20;;;;;;;;;;;8.60;69.60;;;;;;5024418;28;19932;-72
2021/03/17 06:24:46;;;;;;;;;;;8.60;69.60;;;;;;5015723;28;20302;-71
2021/03/17 06:27:13;;;;;;;;;;;8.60;69.40;;;;;;5020365;28;19925;-71
2021/03/17 06:29:40;;;;;;;;;;;8.50;69.60;;;;;;5023668;28;19976;-71
2021/03/17 06:32:07;;;;;;;;;;;8.60;69.80;;;;;;5014761;28;19933;-71
2021/03/17 06:34:34;;;;;;;;;;;8.50;69.30;;;;;;5015355;28;19979;-72
2021/03/17 06:37:01;;;;;;;;;;;8.50;69.60;;;;;;5020714;28;19934;-71
2021/03/17 06:39:34;;;;;;;;;;;8.50;69.90;;;;;;5012188;28;19933;-70
2021/03/17 06:42:00;;;;;;;;;;;8.60;70.10;;;;;;5016986;28;19980;-70
2021/03/17 06:44:27;;;;;;;;;;;8.60;70.00;;;;;;5012337;28;20334;-70
2021/03/17 06:47:12;;;;;;;;;;;8.60;69.80;;;;;;5028815;28;19925;-71
2021/03/17 06:49:39;;;;;;;;;;;8.70;69.90;;;;;;5012537;28;19926;-71
2021/03/17 06:52:20;;;;;;;;;;;8.70;70.00;;;;;;5017036;28;21102;-71
2021/03/17 06:55:01;;;;;;;;;;;8.70;69.70;;;;;;5021838;28;19925;-70
2021/03/17 06:57:29;;;;;;;;;;;8.80;69.70;;;;;;5019544;28;19925;-71
2021/03/17 06:59:55;;;;;;;;;;;8.80;69.40;;;;;;5019631;28;19979;-70
2021/03/17 07:02:21;;;;;;;;;;;8.70;69.20;;;;;;5027668;28;19926;-70
2021/03/17 07:04:52;;;;;;;;;;;8.70;69.40;;;;;;5025562;28;19926;-71
2021/03/17 07:07:20;;;;;;;;;;;8.70;69.30;;;;;;5018958;28;19976;-70
2021/03/17 07:09:58;;;;;;;;;;;8.70;69.10;;;;;;5014319;28;20305;-70
2021/03/17 07:12:31;;;;;;;;;;;8.70;70.00;;;;;;5015421;28;19941;-70
2021/03/17 07:15:08;;;;;;;;;;;8.70;69.60;;;;;;5013962;28;19937;-70
2021/03/17 07:17:34;;;;;;;;;;;8.80;69.60;;;;;;5002054;28;19972;-70
2021/03/17 07:20:04;;;;;;;;;;;8.80;69.60;;;;;;5028994;28;19925;-69
2021/03/17 07:22:31;;;;;;;;;;;8.90;69.50;;;;;;5013269;28;19926;-70
2021/03/17 07:25:01;;;;;;;;;;;8.90;69.30;;;;;;5013788;28;19972;-70
2021/03/17 07:27:27;;;;;;;;;;;9.00;68.80;;;;;;5021609;28;19925;-69
2021/03/17 07:30:11;;;;;;;;;;;9.00;69.00;;;;;;5014684;28;20325;-70
2021/03/17 07:32:57;;;;;;;;;;;9.00;69.10;;;;;;4994355;28;20354;-70
2021/03/17 07:35:24;;;;;;;;;;;9.00;68.90;;;;;;5010163;28;20393;-71
2021/03/17 07:38:01;;;;;;;;;;;9.00;68.30;;;;;;5033904;28;20439;-70
2021/03/17 07:40:28;;;;;;;;;;;9.00;67.80;;;;;;5027106;28;19925;-71
2021/03/17 07:42:54;;;;;;;;;;;9.00;68.10;;;;;;5012416;28;19932;-71
2021/03/17 07:45:21;;;;;;;;;;;9.00;67.90;;;;;;5008741;28;19925;-71
2021/03/17 07:47:49;;;;;;;;;;;9.00;68.10;;;;;;5006695;28;19980;-70
2021/03/17 07:50:16;;;;;;;;;;;9.10;68.10;;;;;;4998963;28;20329;-71
2021/03/17 07:52:42;;;;;;;;;;;9.20;67.80;;;;;;5026392;28;19930;-70
2021/03/17 07:55:10;;;;;;;;;;;9.20;67.70;;;;;;5013679;28;19932;-70
2021/03/17 07:57:36;;;;;;;;;;;9.30;67.70;;;;;;5020549;28;19932;-70
2021/03/17 08:00:03;;;;;;;;;;;9.40;67.70;;;;;;5013411;28;19929;-70
2021/03/17 08:02:31;;;;;;;;;;;9.40;67.30;;;;;;5024601;28;19929;-70
2021/03/17 08:04:59;;;;;;;;;;;9.50;67.20;;;;;;5016720;28;19925;-70
2021/03/17 08:07:25;;;;;;;;;;;9.50;66.30;;;;;;5032112;28;19948;-70
2021/03/17 08:09:53;;;;;;;;;;;9.60;66.50;;;;;;5025371;28;20643;-70
2021/03/17 08:12:20;;;;;;;;;;;9.60;65.40;;;;;;5020157;28;20417;-70
2021/03/17 08:14:47;;;;;;;;;;;9.60;64.30;;;;;;5014000;28;20024;-69
2021/03/17 08:17:13;;;;;;;;;;;9.70;64.50;;;;;;5024268;28;19925;-69
2021/03/17 08:19:40;;;;;;;;;;;9.80;63.70;;;;;;5019963;28;19933;-69
2021/03/17 08:22:07;;;;;;;;;;;9.90;63.10;;;;;;5024943;28;19932;-70
2021/03/17 08:24:44;;;;;;;;;;;10.00;61.30;;;;;;5025716;28;19971;-70
2021/03/17 08:27:23;;;;;;;;;;;10.00;61.00;;;;;;5019648;28;20055;-69
2021/03/17 08:29:51;;;;;;;;;;;10.10;60.80;;;;;;5013468;28;19925;-70
2021/03/17 08:32:18;;;;;;;;;;;10.20;60.80;;;;;;5012940;28;19932;-70
2021/03/17 08:34:53;;;;;;;;;;;10.40;60.30;;;;;;5024546;28;19929;-69
2021/03/17 08:37:19;;;;;;;;;;;10.50;59.40;;;;;;5018933;28;20020;-69
2021/03/17 08:39:47;;;;;;;;;;;10.80;59.20;;;;;;5012988;28;19929;-69
2021/03/17 08:42:14;;;;;;;;;;;11.00;58.80;;;;;;5029839;28;19970;-71
2021/03/17 08:44:48;;;;;;;;;;;11.20;57.50;;;;;;5023913;28;19952;-71
2021/03/17 08:47:21;;;;;;;;;;;11.20;56.60;;;;;;5024591;28;19948;-71
2021/03/17 08:49:48;;;;;;;;;;;11.10;56.80;;;;;;5017103;28;20302;-71
2021/03/17 08:52:17;;;;;;;;;;;11.00;57.40;;;;;;4994065;28;19926;-70
2021/03/17 08:54:45;;;;;;;;;;;10.90;56.80;;;;;;4999455;28;19929;-70
2021/03/17 08:57:12;;;;;;;;;;;10.70;56.70;;;;;;5016881;28;19973;-70
2021/03/17 08:59:39;;;;;;;;;;;10.60;56.50;;;;;;5012947;28;19937;-70
2021/03/17 09:02:06;;;;;;;;;;;10.60;57.10;;;;;;5012922;28;19933;-70
2021/03/17 09:04:44;;;;;;;;;;;10.80;57.20;;;;;;5027831;28;19925;-70
2021/03/17 09:07:11;;;;;;;;;;;10.70;55.90;;;;;;5011910;28;20353;-71
2021/03/17 09:09:48;;;;;;;;;;;10.60;55.50;;;;;;5011965;28;19933;-70
2021/03/17 09:12:16;;;;;;;;;;;10.60;55.40;;;;;;5022752;28;19925;-70
2021/03/17 09:14:42;;;;;;;;;;;10.60;55.40;;;;;;5012853;28;19925;-70
2021/03/17 09:17:09;;;;;;;;;;;10.60;55.50;;;;;;5012262;28;20398;-70
2021/03/17 09:19:52;;;;;;;;;;;10.70;55.70;;;;;;5012806;28;19925;-70
2021/03/17 09:22:30;;;;;;;;;;;10.70;55.20;;;;;;5026504;28;19929;-71
2021/03/17 09:24:58;;;;;;;;;;;10.60;55.00;;;;;;5014045;28;19925;-71
2021/03/17 09:27:24;;;;;;;;;;;10.60;54.00;;;;;;5029125;28;19932;-71
2021/03/17 09:29:50;;;;;;;;;;;10.60;54.20;;;;;;5018242;28;19926;-70
2021/03/17 09:32:17;;;;;;;;;;;10.60;53.10;;;;;;5024302;28;19925;-71
2021/03/17 09:34:44;;;;;;;;;;;10.70;53.60;;;;;;5018598;28;20301;-70
2021/03/17 09:37:11;;;;;;;;;;;10.80;53.50;;;;;;5011809;28;19925;-70
2021/03/17 09:39:39;;;;;;;;;;;10.80;52.90;;;;;;5014856;28;20012;-71
2021/03/17 09:42:14;;;;;;;;;;;10.80;52.70;;;;;;5014313;28;19929;-71
2021/03/17 09:44:40;;;;;;;;;;;10.80;52.10;;;;;;5034293;28;19925;-71
2021/03/17 09:47:07;;;;;;;;;;;10.80;52.00;;;;;;5027369;28;20282;-71
2021/03/17 09:49:34;;;;;;;;;;;10.80;52.00;;;;;;5022125;28;19926;-71
2021/03/17 09:52:01;;;;;;;;;;;10.90;51.90;;;;;;5022946;28;20377;-71
2021/03/17 09:54:29;;;;;;;;;;;10.90;51.90;;;;;;5032642;28;19926;-70
2021/03/17 09:56:56;;;;;;;;;;;11.00;51.80;;;;;;5035472;28;20002;-70
2021/03/17 09:59:25;;;;;;;;;;;11.10;51.40;;;;;;5026899;28;19930;-70
2021/03/17 10:01:56;;;;;;;;;;;11.20;50.60;;;;;;5035410;28;19929;-71
2021/03/17 10:04:24;;;;;;;;;;;11.40;50.90;;;;;;5027680;28;19948;-71
2021/03/17 10:06:51;;;;;;;;;;;11.50;50.60;;;;;;5034237;28;20414;-71
2021/03/17 10:09:17;;;;;;;;;;;11.50;49.80;;;;;;5035960;28;19925;-71
2021/03/17 10:11:44;;;;;;;;;;;11.50;49.60;;;;;;5035837;28;19925;-71
2021/03/17 10:14:11;;;;;;;;;;;11.60;49.30;;;;;;5035668;28;19951;-71
2021/03/17 10:16:38;;;;;;;;;;;11.70;48.40;;;;;;5035602;28;19925;-71
2021/03/17 10:19:05;;;;;;;;;;;11.80;47.80;;;;;;5035763;28;19925;-71
2021/03/17 10:21:31;;;;;;;;;;;11.80;47.00;;;;;;5035692;28;19925;-71
2021/03/17 10:23:58;;;;;;;;;;;11.80;46.70;;;;;;5033843;28;19929;-71
2021/03/17 10:26:25;;;;;;;;;;;11.70;47.30;;;;;;5034246;28;19925;-71
2021/03/17 10:28:52;;;;;;;;;;;11.70;47.40;;;;;;5015495;28;19929;-71
2021/03/17 10:31:18;;;;;;;;;;;11.90;47.70;;;;;;5015203;28;19930;-70
2021/03/17 10:33:47;;;;;;;;;;;12.00;47.30;;;;;;5015440;28;20341;-71
2021/03/17 10:36:14;;;;;;;;;;;11.90;47.00;;;;;;5017393;28;19925;-71
2021/03/17 10:38:49;;;;;;;;;;;11.90;47.50;;;;;;5014619;28;19956;-71
2021/03/17 10:41:15;;;;;;;;;;;12.00;47.90;;;;;;5021479;28;19925;-71
2021/03/17 10:43:41;;;;;;;;;;;12.30;47.70;;;;;;5024942;28;19980;-71
2021/03/17 10:46:08;;;;;;;;;;;12.40;47.10;;;;;;5006291;28;21102;-70
2021/03/17 10:48:42;;;;;;;;;;;12.50;46.70;;;;;;5011875;28;19926;-70
2021/03/17 10:51:09;;;;;;;;;;;12.50;46.10;;;;;;5009525;28;20453;-70
2021/03/17 10:53:36;;;;;;;;;;;12.70;46.60;;;;;;5004984;28;19947;-70
2021/03/17 10:56:03;;;;;;;;;;;13.10;46.10;;;;;;5012195;28;19929;-72
2021/03/17 10:58:40;;;;;;;;;;;13.40;45.80;;;;;;5013705;28;20109;-71
2021/03/17 11:01:06;;;;;;;;;;;13.80;44.90;;;;;;5005113;28;19948;-71
2021/03/17 11:03:34;;;;;;;;;;;13.90;43.60;;;;;;5016010;28;19932;-71
2021/03/17 11:06:14;;;;;;;;;;;13.70;42.60;;;;;;5016818;28;19933;-71
2021/03/17 11:08:41;;;;;;;;;;;13.20;42.60;;;;;;5022901;28;19971;-71
2021/03/17 11:11:07;;;;;;;;;;;12.70;43.60;;;;;;5014799;28;19996;-71
2021/03/17 11:13:38;;;;;;;;;;;12.50;44.40;;;;;;5014485;28;19952;-71
2021/03/17 11:16:09;;;;;;;;;;;12.30;44.90;;;;;;5014532;28;19929;-71
2021/03/17 11:18:36;;;;;;;;;;;12.20;45.30;;;;;;5013335;28;20289;-71
2021/03/17 11:21:05;;;;;;;;;;;12.10;45.70;;;;;;5020633;28;19928;-72
2021/03/17 11:23:33;;;;;;;;;;;12.10;46.30;;;;;;5020734;28;20033;-71
2021/03/17 11:26:00;;;;;;;;;;;12.00;46.70;;;;;;5018239;28;20360;-72
2021/03/17 11:28:27;;;;;;;;;;;11.90;47.20;;;;;;5021970;28;19925;-71
2021/03/17 11:30:55;;;;;;;;;;;11.80;47.60;;;;;;5015741;28;20301;-71
2021/03/17 11:33:21;;;;;;;;;;;11.70;47.90;;;;;;5023087;28;19926;-72
2021/03/17 11:35:48;;;;;;;;;;;11.50;48.30;;;;;;5014576;28;19932;-71
2021/03/17 11:38:15;;;;;;;;;;;11.40;48.90;;;;;;5014204;28;19936;-71
2021/03/17 11:40:42;;;;;;;;;;;11.40;49.10;;;;;;5023736;28;19925;-71
2021/03/17 11:43:09;;;;;;;;;;;11.30;49.50;;;;;;5023511;28;19926;-72
2021/03/17 11:45:36;;;;;;;;;;;11.20;50.60;;;;;;5014383;28;19926;-72
2021/03/17 11:48:02;;;;;;;;;;;11.00;51.00;;;;;;5013910;28;19926;-71
2021/03/17 11:50:28;;;;;;;;;;;10.90;51.90;;;;;;5014382;28;19933;-71
2021/03/17 11:52:54;;;;;;;;;;;10.80;52.90;;;;;;5014154;28;20275;-71
2021/03/17 11:55:21;;;;;;;;;;;10.60;53.60;;;;;;5014059;28;19925;-71
2021/03/17 11:57:49;;;;;;;;;;;10.50;54.40;;;;;;5016597;28;19951;-71
2021/03/17 12:00:16;;;;;;;;;;;10.40;55.30;;;;;;5014143;28;19930;-71
2021/03/17 12:02:43;;;;;;;;;;;10.30;56.20;;;;;;5013521;28;19925;-71
2021/03/17 12:05:09;;;;;;;;;;;10.20;57.20;;;;;;5015285;28;19925;-71
2021/03/17 12:07:36;;;;;;;;;;;10.00;57.60;;;;;;5030918;28;20405;-72
2021/03/17 12:10:02;;;;;;;;;;;9.90;59.10;;;;;;5011975;28;19926;-71
2021/03/17 12:12:28;;;;;;;;;;;9.80;59.90;;;;;;5027965;28;19925;-70
2021/03/17 12:14:56;;;;;;;;;;;9.70;60.00;;;;;;4994132;28;19925;-70
2021/03/17 12:17:22;;;;;;;;;;;9.60;61.00;;;;;;5002654;28;19971;-71
2021/03/17 12:19:48;;;;;;;;;;;9.50;61.60;;;;;;5012463;28;19925;-71
2021/03/17 12:22:15;;;;;;;;;;;9.40;62.10;;;;;;5012900;28;19949;-71
2021/03/17 12:24:41;;;;;;;;;;;9.40;62.80;;;;;;5013258;28;19926;-71
2021/03/17 12:27:10;;;;;;;;;;;9.30;63.00;;;;;;5022190;28;19929;-71
2021/03/17 12:29:36;;;;;;;;;;;9.30;64.00;;;;;;5013766;28;19972;-71
2021/03/17 12:32:04;;;;;;;;;;;9.30;64.30;;;;;;5012071;28;19948;-71
2021/03/17 12:34:30;;;;;;;;;;;9.30;64.20;;;;;;5014408;28;19933;-71
2021/03/17 12:36:57;;;;;;;;;;;9.20;64.30;;;;;;5014250;28;21474;-71
2021/03/17 12:39:24;;;;;;;;;;;9.30;65.00;;;;;;5032980;28;20396;-71
2021/03/17 12:41:50;;;;;;;;;;;9.30;64.90;;;;;;5021490;28;19925;-71
2021/03/17 12:44:17;;;;;;;;;;;9.30;65.00;;;;;;5021091;28;20374;-71
2021/03/17 12:46:43;;;;;;;;;;;9.30;64.70;;;;;;5024634;28;19929;-71
2021/03/17 12:49:11;;;;;;;;;;;9.30;64.80;;;;;;5014413;28;19929;-71
2021/03/17 12:51:37;;;;;;;;;;;9.30;64.70;;;;;;5021510;28;19928;-70
2021/03/17 12:54:03;;;;;;;;;;;9.30;65.00;;;;;;5033053;28;21387;-70
2021/03/17 12:56:30;;;;;;;;;;;9.30;64.90;;;;;;5019691;28;19932;-71
2021/03/17 12:58:56;;;;;;;;;;;9.20;64.60;;;;;;5014412;28;20381;-71
2021/03/17 13:01:22;;;;;;;;;;;9.20;65.10;;;;;;5027024;28;19926;-72
2021/03/17 13:03:49;;;;;;;;;;;9.20;65.10;;;;;;5015068;28;19929;-71
2021/03/17 13:06:16;;;;;;;;;;;9.20;65.00;;;;;;5012736;28;19936;-71
2021/03/17 13:08:42;;;;;;;;;;;9.20;65.00;;;;;;5011948;28;20345;-71
2021/03/17 13:11:08;;;;;;;;;;;9.20;65.00;;;;;;5012957;28;19953;-71
2021/03/17 13:13:35;;;;;;;;;;;9.20;64.80;;;;;;5012865;28;19948;-70
2021/03/17 13:16:01;;;;;;;;;;;9.20;65.00;;;;;;5012412;28;19937;-70
2021/03/17 13:18:27;;;;;;;;;;;9.20;64.90;;;;;;5014368;28;19929;-70
2021/03/17 13:20:54;;;;;;;;;;;9.10;64.90;;;;;;5016436;28;20366;-71
2021/03/17 13:23:21;;;;;;;;;;;9.10;65.40;;;;;;5018128;28;20374;-71
2021/03/17 13:25:47;;;;;;;;;;;9.20;65.30;;;;;;5012813;28;19926;-71
2021/03/17 13:28:14;;;;;;;;;;;9.30;65.20;;;;;;5024087;28;19929;-70
2021/03/17 13:30:41;;;;;;;;;;;9.30;65.20;;;;;;5020287;28;20404;-71
2021/03/17 13:33:08;;;;;;;;;;;9.30;65.10;;;;;;5029673;28;19925;-71
2021/03/17 13:35:37;;;;;;;;;;;9.40;65.40;;;;;;5014859;28;19925;-71
2021/03/17 13:38:04;;;;;;;;;;;9.50;65.20;;;;;;5015837;28;19964;-71
2021/03/17 13:40:32;;;;;;;;;;;9.60;65.10;;;;;;5019599;28;19929;-71
2021/03/17 13:42:59;;;;;;;;;;;9.60;64.10;;;;;;5028894;28;19929;-72
2021/03/17 13:45:26;;;;;;;;;;;9.60;64.40;;;;;;5027122;28;19925;-71
2021/03/17 13:47:52;;;;;;;;;;;9.70;64.90;;;;;;5024929;28;20329;-71
2021/03/17 13:50:19;;;;;;;;;;;10.00;64.10;;;;;;5027570;28;19932;-70
2021/03/17 13:52:45;;;;;;;;;;;10.30;64.00;;;;;;5016228;28;20350;-70
2021/03/17 13:55:13;;;;;;;;;;;10.60;62.90;;;;;;5025144;28;19926;-71
2021/03/17 13:57:40;;;;;;;;;;;10.70;62.30;;;;;;5016947;28;20267;-70
2021/03/17 14:00:08;;;;;;;;;;;10.80;61.60;;;;;;5019812;28;19940;-70
2021/03/17 14:02:34;;;;;;;;;;;10.80;61.10;;;;;;5009037;28;20404;-70
2021/03/17 14:05:00;;;;;;;;;;;10.90;60.40;;;;;;5014260;28;19926;-71
2021/03/17 14:07:27;;;;;;;;;;;11.00;60.70;;;;;;5013523;28;19925;-70
2021/03/17 14:09:53;;;;;;;;;;;11.00;60.90;;;;;;5016135;28;19926;-71
2021/03/17 14:12:19;;;;;;;;;;;11.10;60.80;;;;;;5016903;28;20291;-70
2021/03/17 14:14:47;;;;;;;;;;;11.00;60.20;;;;;;5015886;28;19925;-71
2021/03/17 14:17:13;;;;;;;;;;;10.90;60.50;;;;;;5015555;28;19926;-72
2021/03/17 14:19:39;;;;;;;;;;;10.80;60.10;;;;;;5025649;28;19933;-72
2021/03/17 14:22:05;;;;;;;;;;;10.80;60.20;;;;;;5018020;28;19980;-72
2021/03/17 14:24:32;;;;;;;;;;;10.80;60.60;;;;;;5013034;28;20385;-72
2021/03/17 14:26:58;;;;;;;;;;;10.80;60.50;;;;;;5023751;28;19935;-72
2021/03/17 14:29:24;;;;;;;;;;;10.80;60.40;;;;;;5024723;28;19925;-73